createdAt,value
2022-11-14T00:01:16.580Z,103058.59
2022-11-14T00:03:44.442Z,103049.09
2022-11-14T00:06:13.427Z,103040.41
2022-11-14T00:08:42.682Z,103038.63
2022-11-14T00:11:10.710Z,103042.03
2022-11-14T00:13:38.765Z,103046.34
2022-11-14T00:16:06.872Z,103042.88
2022-11-14T00:18:34.729Z,103037.66
2022-11-14T00:21:02.615Z,103025.50
2022-11-14T00:23:30.497Z,103021.13
2022-11-14T00:25:59.791Z,103014.16
2022-11-14T00:28:28.045Z,103021.88
2022-11-14T00:30:56.137Z,103009.72
2022-11-14T00:33:24.009Z,103009.69
2022-11-14T00:35:53.445Z,103010.50
2022-11-14T00:38:21.361Z,103002.66
2022-11-14T00:40:49.437Z,103004.34
2022-11-14T00:43:18.746Z,102995.66
2022-11-14T00:45:47.673Z,103000.78
2022-11-14T00:48:15.918Z,102993.00
2022-11-14T00:50:44.545Z,102989.50
2022-11-14T00:53:12.762Z,102995.53
2022-11-14T00:55:40.917Z,102987.72
2022-11-14T00:58:08.839Z,102991.13
2022-11-14T01:00:38.476Z,102984.16
2022-11-14T01:03:06.515Z,102987.59
2022-11-14T01:05:34.470Z,102987.56
2022-11-14T01:08:02.347Z,102974.59
2022-11-14T01:10:30.255Z,102975.38
2022-11-14T01:12:58.364Z,102981.44
2022-11-14T01:15:26.382Z,102976.22
2022-11-14T01:17:55.643Z,102972.69
2022-11-14T01:20:23.562Z,102975.25
2022-11-14T01:22:51.465Z,102963.09
2022-11-14T01:25:19.337Z,102957.88
2022-11-14T01:27:47.299Z,102952.66
2022-11-14T01:30:15.511Z,102955.22
2022-11-14T01:32:43.431Z,102950.81
2022-11-14T01:35:12.663Z,102955.13
2022-11-14T01:37:40.521Z,102940.41
2022-11-14T01:40:09.881Z,102937.72
2022-11-14T01:42:37.756Z,102935.09
2022-11-14T01:45:39.034Z,102930.75
2022-11-14T01:48:19.589Z,102922.91
2022-11-14T01:50:54.734Z,102921.13
2022-11-14T01:53:22.745Z,102913.31
2022-11-14T01:55:51.435Z,102912.47
2022-11-14T01:58:19.851Z,102909.84
2022-11-14T02:00:47.767Z,102908.06
2022-11-14T02:03:16.848Z,102908.88
2022-11-14T02:05:48.358Z,102901.06
2022-11-14T02:08:18.979Z,102895.81
2022-11-14T02:10:46.835Z,102896.66
2022-11-14T02:13:15.094Z,102900.06
2022-11-14T02:15:42.993Z,102900.03
2022-11-14T02:18:12.428Z,102892.22
2022-11-14T02:20:43.400Z,102897.47
2022-11-14T02:23:12.851Z,102887.09
2022-11-14T02:25:41.535Z,102883.69
2022-11-14T02:28:10.993Z,102875.94
2022-11-14T02:30:38.956Z,102879.41
2022-11-14T02:33:11.263Z,102867.31
2022-11-14T02:35:41.162Z,102875.19
2022-11-14T02:38:09.357Z,102875.28
2022-11-14T02:40:37.221Z,102871.03
2022-11-14T02:43:05.224Z,102874.47
2022-11-14T02:45:33.127Z,102869.31
2022-11-14T02:48:00.993Z,102874.50
2022-11-14T02:50:28.973Z,102869.31
2022-11-14T02:52:58.220Z,102871.88
2022-11-14T02:55:26.168Z,102865.81
2022-11-14T02:57:54.231Z,102872.69
2022-11-14T03:00:22.279Z,102881.34
2022-11-14T03:02:50.138Z,102880.50
2022-11-14T03:05:18.147Z,102877.09
2022-11-14T03:07:46.015Z,102883.09
2022-11-14T03:10:15.881Z,102877.88
2022-11-14T03:12:43.749Z,102877.88
2022-11-14T03:15:12.325Z,102867.47
2022-11-14T03:17:40.462Z,102863.97
2022-11-14T03:20:10.437Z,102860.53
2022-11-14T03:22:38.327Z,102861.47
2022-11-14T03:25:06.973Z,102865.88
2022-11-14T03:27:36.491Z,102871.00
2022-11-14T03:30:05.781Z,102857.13
2022-11-14T03:32:33.643Z,102858.00
2022-11-14T03:35:01.501Z,102859.69
2022-11-14T03:37:29.411Z,102858.94
2022-11-14T03:39:57.304Z,102846.84
2022-11-14T03:42:25.160Z,102851.19
2022-11-14T03:44:54.412Z,102845.16
2022-11-14T03:47:22.269Z,102850.38
2022-11-14T03:49:50.124Z,102846.91
2022-11-14T03:52:18.143Z,102842.66
2022-11-14T03:54:45.989Z,102836.63
2022-11-14T03:57:13.950Z,102842.69
2022-11-14T03:59:41.938Z,102840.97
2022-11-14T04:02:11.157Z,102841.81
2022-11-14T04:04:39.011Z,102833.97
2022-11-14T04:07:06.940Z,102840.91
2022-11-14T04:09:34.807Z,102828.75
2022-11-14T04:12:02.672Z,102827.00
2022-11-14T04:14:30.522Z,102819.22
2022-11-14T04:16:58.414Z,102820.06
2022-11-14T04:19:27.639Z,102820.03
2022-11-14T04:21:55.696Z,102814.81
2022-11-14T04:24:23.668Z,102809.63
2022-11-14T04:26:51.581Z,102811.34
2022-11-14T04:29:19.501Z,102813.03
2022-11-14T04:31:47.377Z,102809.59
2022-11-14T04:34:15.257Z,102812.97
2022-11-14T04:36:44.702Z,102809.44
2022-11-14T04:39:12.582Z,102812.03
2022-11-14T04:41:40.450Z,102815.44
2022-11-14T04:44:08.497Z,102799.88
2022-11-14T04:46:36.540Z,102802.47
2022-11-14T04:49:04.436Z,102798.13
2022-11-14T04:51:32.973Z,102798.13
2022-11-14T04:54:02.247Z,102796.41
2022-11-14T04:56:30.141Z,102792.06
2022-11-14T04:58:58.145Z,102792.03
2022-11-14T05:01:26.091Z,102790.31
2022-11-14T05:03:53.950Z,102788.59
2022-11-14T05:06:21.800Z,102789.41
2022-11-14T05:08:49.671Z,102781.59
2022-11-14T05:11:24.111Z,102792.84
2022-11-14T05:13:54.501Z,102785.94
2022-11-14T05:16:22.513Z,102781.56
2022-11-14T05:18:50.557Z,102782.41
2022-11-14T05:21:18.430Z,102790.19
2022-11-14T05:23:46.302Z,102786.69
2022-11-14T05:26:16.860Z,102790.13
2022-11-14T05:28:46.222Z,102783.16
2022-11-14T05:31:17.891Z,102784.91
2022-11-14T05:33:46.692Z,102783.25
2022-11-14T05:36:16.667Z,102785.88
2022-11-14T05:38:44.846Z,102780.75
2022-11-14T05:41:14.871Z,102777.34
2022-11-14T05:43:43.210Z,102783.41
2022-11-14T05:46:14.346Z,102782.53
2022-11-14T05:48:42.969Z,102774.72
2022-11-14T05:51:13.562Z,102771.28
2022-11-14T05:53:42.217Z,102767.78
2022-11-14T05:56:13.172Z,102766.88
2022-11-14T05:58:41.504Z,102760.78
2022-11-14T06:01:11.457Z,102757.34
2022-11-14T06:03:42.574Z,102758.16
2022-11-14T06:06:12.693Z,102752.91
2022-11-14T06:08:40.782Z,102757.25
2022-11-14T06:11:10.545Z,102753.69
2022-11-14T06:13:38.707Z,102758.88
2022-11-14T06:16:08.780Z,102751.09
2022-11-14T06:18:37.669Z,102752.78
2022-11-14T06:21:08.273Z,102756.22
2022-11-14T06:23:36.168Z,102755.31
2022-11-14T06:26:06.443Z,102759.59
2022-11-14T06:28:34.520Z,102754.47
2022-11-14T06:31:03.686Z,102750.97
2022-11-14T06:33:35.508Z,102754.38
2022-11-14T06:36:05.847Z,102746.56
2022-11-14T06:38:36.113Z,102746.56
2022-11-14T06:41:05.114Z,102746.50
2022-11-14T06:43:36.477Z,102736.06
2022-11-14T06:46:05.138Z,102740.38
2022-11-14T06:48:33.581Z,102733.44
2022-11-14T06:51:02.703Z,102733.41
2022-11-14T06:53:32.712Z,102732.50
2022-11-14T06:56:04.302Z,102728.09
2022-11-14T06:58:34.453Z,102732.38
2022-11-14T07:01:06.318Z,102726.22
2022-11-14T07:03:34.617Z,102723.59
2022-11-14T07:06:03.227Z,102724.41
2022-11-14T07:08:32.433Z,102730.41
2022-11-14T07:11:06.514Z,102734.72
2022-11-14T07:13:35.156Z,102724.19
2022-11-14T07:16:03.932Z,102738.84
2022-11-14T07:18:32.999Z,102724.94
2022-11-14T07:21:02.701Z,102728.38
2022-11-14T07:23:31.354Z,102731.78
2022-11-14T07:26:01.990Z,102731.72
2022-11-14T07:28:32.285Z,102723.84
2022-11-14T07:31:00.361Z,102722.03
2022-11-14T07:33:28.205Z,102723.69
2022-11-14T07:35:56.049Z,102725.38
2022-11-14T07:38:23.909Z,102718.41
2022-11-14T07:40:59.510Z,102714.91
2022-11-14T07:43:28.888Z,102712.22
2022-11-14T07:46:01.790Z,102712.16
2022-11-14T07:48:29.876Z,102718.16
2022-11-14T07:51:00.585Z,102719.84
2022-11-14T07:53:29.013Z,102724.06
2022-11-14T07:55:56.990Z,102715.31
2022-11-14T07:58:25.049Z,102712.63
2022-11-14T08:00:52.981Z,102708.25
2022-11-14T08:03:22.273Z,102707.28
2022-11-14T08:05:50.118Z,102708.16
2022-11-14T08:08:18.027Z,102702.91
2022-11-14T08:10:45.871Z,102699.41
2022-11-14T08:16:10.726Z,102701.88
2022-11-14T08:18:44.923Z,102689.75
2022-11-14T08:21:15.824Z,102697.50
2022-11-14T08:23:46.734Z,102701.78
2022-11-14T08:26:17.592Z,102700.00
2022-11-14T08:28:45.427Z,102692.97
2022-11-14T08:31:14.980Z,102689.47
2022-11-14T08:33:47.027Z,102686.81
2022-11-14T08:36:14.862Z,102685.88
2022-11-14T08:38:42.738Z,102681.50
2022-11-14T08:41:13.481Z,102677.09
2022-11-14T08:43:41.349Z,102671.00
2022-11-14T08:46:11.506Z,102670.97
2022-11-14T08:48:41.792Z,102665.75
2022-11-14T08:51:11.042Z,102664.03
2022-11-14T08:53:38.945Z,102657.84
2022-11-14T08:56:07.068Z,102655.19
2022-11-14T08:58:34.943Z,102662.97
2022-11-14T09:01:03.646Z,102668.16
2022-11-14T09:03:31.898Z,102670.66
2022-11-14T09:06:00.429Z,102666.31
2022-11-14T09:08:30.732Z,102667.13
2022-11-14T09:11:05.124Z,102660.13
2022-11-14T09:13:34.648Z,102656.50
2022-11-14T09:16:02.738Z,102649.56
2022-11-14T09:18:31.722Z,102654.69
2022-11-14T09:21:02.055Z,102652.06
2022-11-14T09:23:31.858Z,102650.28
2022-11-14T09:26:04.124Z,102643.28
2022-11-14T09:28:32.060Z,102642.34
2022-11-14T09:31:02.212Z,102639.72
2022-11-14T09:33:30.704Z,102633.63
2022-11-14T09:35:59.371Z,102641.34
2022-11-14T09:38:27.697Z,102633.53
2022-11-14T09:41:10.124Z,102632.66
2022-11-14T09:44:00.257Z,102624.75
2022-11-14T09:46:33.054Z,102628.19
2022-11-14T09:49:01.212Z,102625.50
2022-11-14T09:51:34.447Z,102623.66
2022-11-14T09:54:13.065Z,102625.34
2022-11-14T09:56:42.337Z,102625.28
2022-11-14T09:59:12.398Z,102627.88
2022-11-14T10:01:47.125Z,102624.41
2022-11-14T10:04:23.707Z,102614.81
2022-11-14T10:07:02.376Z,102609.56
2022-11-14T10:09:48.033Z,102612.13
2022-11-14T10:12:25.284Z,102605.16
2022-11-14T10:15:17.640Z,102602.47
2022-11-14T10:18:08.159Z,102598.94
2022-11-14T10:20:40.902Z,102593.03
2022-11-14T10:23:32.906Z,102591.22
2022-11-14T10:26:11.905Z,102593.88
2022-11-14T10:29:05.890Z,102587.69
2022-11-14T10:31:45.410Z,102593.72
2022-11-14T10:34:18.696Z,102591.94
2022-11-14T10:36:59.279Z,102588.44
2022-11-14T10:39:33.599Z,102578.88
2022-11-14T10:42:07.841Z,102577.13
2022-11-14T10:44:43.163Z,102576.22
2022-11-14T10:47:16.531Z,102574.44
2022-11-14T10:49:48.327Z,102571.84
2022-11-14T10:52:19.237Z,102557.00
2022-11-14T10:54:52.300Z,102560.44
2022-11-14T10:57:22.066Z,102556.09
2022-11-14T10:59:57.581Z,102559.53
2022-11-14T11:02:25.491Z,102552.47
2022-11-14T11:04:53.385Z,102555.91
2022-11-14T11:07:41.759Z,102543.69
2022-11-14T11:10:39.785Z,102550.59
2022-11-14T11:13:07.854Z,102549.69
2022-11-14T11:15:43.530Z,102546.16
2022-11-14T11:18:27.160Z,102547.06
2022-11-14T11:21:07.459Z,102547.84
2022-11-14T11:23:36.209Z,102546.94
2022-11-14T11:26:07.842Z,102539.06
2022-11-14T11:28:37.401Z,102539.78
2022-11-14T11:31:08.501Z,102536.25
2022-11-14T11:33:37.603Z,102530.19
2022-11-14T11:36:08.759Z,102527.63
2022-11-14T11:38:39.212Z,102527.56
2022-11-14T11:41:33.393Z,102519.69
2022-11-14T11:44:08.490Z,102523.22
2022-11-14T11:46:45.946Z,102522.31
2022-11-14T11:49:19.815Z,102518.78
2022-11-14T11:51:48.492Z,102514.50
2022-11-14T11:54:19.695Z,102518.84
2022-11-14T11:56:53.274Z,102511.00
2022-11-14T11:59:33.568Z,102506.66
2022-11-14T12:02:05.422Z,102506.66
2022-11-14T12:04:33.382Z,102505.78
2022-11-14T12:07:13.516Z,102493.63
2022-11-14T12:10:09.254Z,102498.84
2022-11-14T12:12:48.601Z,102494.53
2022-11-14T12:15:23.691Z,102482.28
2022-11-14T12:18:19.180Z,102481.44
2022-11-14T12:21:06.798Z,102484.06
2022-11-14T12:24:13.067Z,102471.03
2022-11-14T12:26:58.214Z,102476.22
2022-11-14T12:29:43.330Z,102464.94
2022-11-14T12:32:16.788Z,102463.31
2022-11-14T12:34:48.966Z,102462.38
2022-11-14T12:37:21.972Z,102464.91
2022-11-14T12:39:58.786Z,102457.06
2022-11-14T12:42:26.938Z,102464.84
2022-11-14T12:44:54.830Z,102458.75
2022-11-14T12:47:26.569Z,102451.97
2022-11-14T12:50:21.058Z,102455.44
2022-11-14T12:52:50.892Z,102448.53
2022-11-14T12:55:55.816Z,102446.78
2022-11-14T12:58:47.151Z,102458.88
2022-11-14T13:01:43.319Z,102445.94
2022-11-14T13:04:23.995Z,102441.53
2022-11-14T13:07:06.965Z,102447.56
2022-11-14T13:09:42.840Z,102441.53
2022-11-14T13:12:47.627Z,102438.06
2022-11-14T13:15:49.236Z,102434.63
2022-11-14T13:18:42.108Z,102440.72
2022-11-14T13:21:45.138Z,102441.53
2022-11-14T13:24:17.023Z,102432.06
2022-11-14T13:26:50.362Z,102435.50
2022-11-14T13:29:49.088Z,102426.91
2022-11-14T13:32:54.590Z,102415.59
2022-11-14T13:35:32.137Z,102410.28
2022-11-14T13:38:33.131Z,102411.22
2022-11-14T13:41:20.159Z,102405.19
2022-11-14T13:44:07.401Z,102399.09
2022-11-14T13:46:56.578Z,102400.84
2022-11-14T13:49:38.679Z,102397.41
2022-11-14T13:52:07.376Z,102409.53
2022-11-14T13:54:35.305Z,102406.81
2022-11-14T13:57:15.451Z,102404.16
2022-11-14T13:59:53.737Z,102403.34
2022-11-14T14:02:47.867Z,102399.97
2022-11-14T14:05:33.708Z,102401.66
2022-11-14T14:08:21.410Z,102406.00
2022-11-14T14:11:04.250Z,102394.69
2022-11-14T14:13:47.992Z,102391.22
2022-11-14T14:16:30.037Z,102392.09
2022-11-14T14:19:08.663Z,102388.56
2022-11-14T14:21:45.749Z,102394.69
2022-11-14T14:24:28.198Z,102392.03
2022-11-14T14:27:07.187Z,102384.22
2022-11-14T14:29:46.861Z,102384.22
2022-11-14T14:32:16.677Z,102373.84
2022-11-14T14:34:45.542Z,102377.31
2022-11-14T14:37:21.441Z,102369.53
2022-11-14T14:39:59.695Z,102367.00
2022-11-14T14:42:34.680Z,102373.03
2022-11-14T14:45:05.797Z,102364.38
2022-11-14T14:47:41.265Z,102374.81
2022-11-14T14:50:17.340Z,102376.59
2022-11-14T14:52:45.556Z,102367.81
2022-11-14T14:55:25.402Z,102372.19
2022-11-14T14:57:53.275Z,102361.78
2022-11-14T15:00:26.708Z,102361.78
2022-11-14T15:02:56.689Z,102359.13
2022-11-14T15:05:25.537Z,102353.84
2022-11-14T15:07:54.953Z,102349.53
2022-11-14T15:10:25.004Z,102349.53
2022-11-14T15:12:54.169Z,102349.53
2022-11-14T15:15:25.752Z,102339.09
2022-11-14T15:17:55.213Z,102337.44
2022-11-14T15:20:24.773Z,102344.41
2022-11-14T15:23:07.291Z,102341.69
2022-11-14T15:25:35.522Z,102340.88
2022-11-14T15:28:04.056Z,102336.47
2022-11-14T15:30:35.703Z,102330.44
2022-11-14T15:33:05.050Z,102332.19
2022-11-14T15:35:34.465Z,102330.38
2022-11-14T15:38:28.859Z,102329.56
2022-11-14T15:41:17.434Z,102321.00
2022-11-14T15:43:50.567Z,102330.50
2022-11-14T15:46:39.153Z,102327.06
2022-11-14T15:49:18.711Z,102322.66
2022-11-14T15:51:51.609Z,102314.03
2022-11-14T15:54:24.710Z,102317.56
2022-11-14T15:56:53.111Z,102312.25
2022-11-14T15:59:21.438Z,102307.91
2022-11-14T16:01:54.117Z,102307.13
2022-11-14T16:04:24.757Z,102298.28
2022-11-14T16:06:55.664Z,102298.41
2022-11-14T16:09:23.723Z,102295.84
2022-11-14T16:11:51.838Z,102292.28
2022-11-14T16:14:19.786Z,102289.72
2022-11-14T16:16:47.661Z,102289.72
2022-11-14T16:19:17.982Z,102283.63
2022-11-14T16:21:45.855Z,102278.56
2022-11-14T16:24:18.092Z,102282.75
2022-11-14T16:26:46.044Z,102276.63
2022-11-14T16:29:13.928Z,102283.50
2022-11-14T16:31:42.234Z,102280.97
2022-11-14T16:34:14.798Z,102286.16
2022-11-14T16:36:46.106Z,102281.84
2022-11-14T16:39:14.455Z,102280.09
2022-11-14T16:41:42.366Z,102283.50
2022-11-14T16:44:15.901Z,102280.00
2022-11-14T16:46:43.946Z,102266.16
2022-11-14T16:49:15.167Z,102258.50
2022-11-14T16:51:48.469Z,102262.06
2022-11-14T16:54:17.330Z,102255.94
2022-11-14T16:56:45.266Z,102256.75
2022-11-14T16:59:13.368Z,102246.44
2022-11-14T17:01:41.311Z,102239.53
2022-11-14T17:04:09.219Z,102242.06
2022-11-14T17:06:37.110Z,102246.53
2022-11-14T17:09:06.427Z,102245.63
2022-11-14T17:11:34.288Z,102232.66
2022-11-14T17:14:02.199Z,102237.84
2022-11-14T17:16:30.279Z,102234.38
2022-11-14T17:18:58.119Z,102226.53
2022-11-14T17:21:26.466Z,102217.91
2022-11-14T17:23:56.085Z,102216.19
2022-11-14T17:26:25.379Z,102223.03
2022-11-14T17:28:53.541Z,102216.91
2022-11-14T17:31:21.581Z,102213.41
2022-11-14T17:33:53.354Z,102217.69
2022-11-14T17:36:22.470Z,102223.72
2022-11-14T17:38:50.363Z,102223.72
2022-11-14T17:41:18.439Z,102211.47
2022-11-14T17:43:47.851Z,102210.63
2022-11-14T17:46:16.494Z,102208.03
2022-11-14T17:48:44.581Z,102220.13
2022-11-14T17:51:14.509Z,102212.31
2022-11-14T17:53:42.795Z,102208.84
2022-11-14T17:56:14.525Z,102210.50
2022-11-14T17:58:43.174Z,102207.84
2022-11-14T18:01:13.491Z,102203.53
2022-11-14T18:03:41.470Z,102206.34
2022-11-14T18:06:10.360Z,102205.41
2022-11-14T18:08:38.493Z,102207.97
2022-11-14T18:11:08.289Z,102201.03
2022-11-14T18:13:36.402Z,102205.34
2022-11-14T18:16:05.433Z,102202.75
2022-11-14T18:18:36.396Z,102207.03
2022-11-14T18:21:08.913Z,102205.31
2022-11-14T18:23:38.724Z,102206.19
2022-11-14T18:26:13.302Z,102199.22
2022-11-14T18:28:44.393Z,102195.75
2022-11-14T18:31:13.874Z,102193.16
2022-11-14T18:33:43.501Z,102187.09
2022-11-14T18:36:13.250Z,102183.59
2022-11-14T18:38:41.658Z,102177.41
2022-11-14T18:41:11.410Z,102177.41
2022-11-14T18:43:39.250Z,102163.59
2022-11-14T18:46:08.650Z,102167.13
2022-11-14T18:48:36.821Z,102171.47
2022-11-14T18:51:07.850Z,102173.97
2022-11-14T18:53:36.983Z,102169.75
2022-11-14T18:56:05.860Z,102177.50
2022-11-14T18:58:34.037Z,102181.03
2022-11-14T19:01:10.192Z,102172.34
2022-11-14T19:03:38.154Z,102167.94
2022-11-14T19:06:09.161Z,102167.94
2022-11-14T19:08:37.226Z,102165.22
2022-11-14T19:11:06.461Z,102167.81
2022-11-14T19:13:34.718Z,102154.84
2022-11-14T19:16:03.393Z,102146.97
2022-11-14T19:18:32.413Z,102139.16
2022-11-14T19:21:01.710Z,102139.03
2022-11-14T19:23:31.424Z,102139.09
2022-11-14T19:26:00.831Z,102117.38
2022-11-14T19:28:29.859Z,102113.13
2022-11-14T19:31:03.037Z,102113.13
2022-11-14T19:33:31.722Z,102103.69
2022-11-14T19:36:05.493Z,102104.34
2022-11-14T19:38:35.293Z,102108.78
2022-11-14T19:41:08.060Z,102101.84
2022-11-14T19:43:38.016Z,102093.97
2022-11-14T19:46:06.991Z,102087.00
2022-11-14T19:48:35.995Z,102084.41
2022-11-14T19:51:06.034Z,102070.50
2022-11-14T19:53:36.803Z,102056.81
2022-11-14T19:56:06.683Z,102057.66
2022-11-14T19:58:36.758Z,102058.56
2022-11-14T20:01:06.639Z,102072.47
2022-11-14T20:03:34.837Z,102068.13
2022-11-14T20:06:03.419Z,102069.84
2022-11-14T20:08:31.584Z,102067.31
2022-11-14T20:11:02.590Z,102061.25
2022-11-14T20:13:35.892Z,102060.31
2022-11-14T20:16:09.629Z,102059.56
2022-11-14T20:18:37.922Z,102062.22
2022-11-14T20:21:07.949Z,102051.78
2022-11-14T20:23:36.439Z,102052.75
2022-11-14T20:26:11.091Z,102053.72
2022-11-14T20:28:39.925Z,102045.16
2022-11-14T20:31:12.920Z,102043.53
2022-11-14T20:33:43.208Z,102052.28
2022-11-14T20:36:13.159Z,102053.28
2022-11-14T20:38:41.368Z,102055.81
2022-11-14T20:41:11.192Z,102067.03
2022-11-14T20:43:39.334Z,102066.19
2022-11-14T20:46:09.379Z,102067.09
2022-11-14T20:48:37.392Z,102057.47
2022-11-14T20:51:05.816Z,102052.31
2022-11-14T20:53:34.468Z,102056.69
2022-11-14T20:56:04.046Z,102053.22
2022-11-14T20:58:33.771Z,102054.06
2022-11-14T21:01:01.942Z,102044.69
2022-11-14T21:03:30.325Z,102045.41
2022-11-14T21:05:58.635Z,102038.44
2022-11-14T21:08:26.512Z,102041.84
2022-11-14T21:11:00.118Z,102047.13
2022-11-14T21:13:45.549Z,102041.03
2022-11-14T21:16:16.826Z,102052.38
2022-11-14T21:18:48.155Z,102041.22
2022-11-14T21:21:18.081Z,102044.81
2022-11-14T21:23:47.079Z,102039.66
2022-11-14T21:26:16.775Z,102037.06
2022-11-14T21:28:46.318Z,102037.00
2022-11-14T21:31:18.122Z,102037.81
2022-11-14T21:33:47.229Z,102039.66
2022-11-14T21:36:43.277Z,102031.03
2022-11-14T21:39:05.569Z,102036.31
2022-11-14T21:41:33.876Z,102038.09
2022-11-14T21:44:04.390Z,102021.72
2022-11-14T21:46:33.628Z,102033.81
2022-11-14T21:49:01.464Z,102043.41
2022-11-14T21:51:30.176Z,102036.38
2022-11-14T21:53:59.412Z,102039.94
2022-11-14T21:56:29.035Z,102044.34
2022-11-14T21:59:11.677Z,102050.38
2022-11-14T22:01:58.084Z,102045.28
2022-11-14T22:04:26.325Z,102041.88
2022-11-14T22:06:54.646Z,102056.63
2022-11-14T22:09:23.167Z,102048.00
2022-11-14T22:11:54.151Z,102042.97
2022-11-14T22:14:22.018Z,102057.69
2022-11-14T22:16:51.234Z,102048.13
2022-11-14T22:19:19.734Z,102052.41
2022-11-14T22:21:47.807Z,102048.97
2022-11-14T22:24:15.689Z,102045.56
2022-11-14T22:26:43.543Z,102054.34
2022-11-14T22:29:11.555Z,102045.69
2022-11-14T22:31:39.445Z,102037.81
2022-11-14T22:34:08.681Z,102035.22
2022-11-14T22:36:36.803Z,102029.06
2022-11-14T22:39:05.524Z,102023.97
2022-11-14T22:41:34.157Z,102028.25
2022-11-14T22:44:02.929Z,102026.53
2022-11-14T22:46:31.041Z,102025.75
2022-11-14T22:48:59.341Z,102032.72
2022-11-14T22:51:29.316Z,102020.44
2022-11-14T22:53:59.167Z,102023.97
2022-11-14T22:56:30.893Z,102018.88
2022-11-14T22:59:00.618Z,102029.38
2022-11-14T23:01:33.222Z,102019.00
2022-11-14T23:04:02.981Z,102020.03
2022-11-14T23:06:35.492Z,102024.44
2022-11-14T23:09:05.054Z,102027.84
2022-11-14T23:11:33.878Z,102018.41
2022-11-14T23:14:02.254Z,102012.41
2022-11-14T23:16:32.081Z,102015.97
2022-11-14T23:19:02.134Z,102010.78
2022-11-14T23:21:32.888Z,102012.56
2022-11-14T23:24:04.753Z,102015.13
2022-11-14T23:26:33.408Z,102018.75
2022-11-14T23:29:01.988Z,102018.88
2022-11-14T23:31:29.854Z,102015.47
2022-11-14T23:33:58.900Z,102006.03
2022-11-14T23:36:27.119Z,102006.88
2022-11-14T23:38:55.014Z,102025.16
2022-11-14T23:41:26.743Z,102017.56
2022-11-14T23:43:54.733Z,102027.19
2022-11-14T23:46:22.587Z,102023.84
2022-11-14T23:48:50.843Z,102021.19
2022-11-14T23:51:18.880Z,102010.81
2022-11-14T23:53:46.925Z,102001.56
2022-11-14T23:56:15.938Z,101991.03
2022-11-14T23:58:45.348Z,101985.75
